createdAt,value
2019-01-03T00:00:08.421Z,1012.97
2019-01-03T00:01:08.410Z,1012.98
2019-01-03T00:02:08.407Z,1012.98
2019-01-03T00:03:08.397Z,1012.99
2019-01-03T00:04:08.382Z,1013.04
2019-01-03T00:05:08.375Z,1013.09
2019-01-03T00:06:08.359Z,1013.04
2019-01-03T00:07:08.349Z,1013.02
2019-01-03T00:08:08.341Z,1013.03
2019-01-03T00:09:08.336Z,1013.07
2019-01-03T00:10:08.314Z,1013.05
2019-01-03T00:11:08.309Z,1013.09
2019-01-03T00:12:08.294Z,1013.10
2019-01-03T00:13:08.292Z,1013.09
2019-01-03T00:14:08.275Z,1013.09
2019-01-03T00:15:08.267Z,1013.10
2019-01-03T00:16:08.249Z,1013.11
2019-01-03T00:17:08.251Z,1013.08
2019-01-03T00:18:08.234Z,1013.08
2019-01-03T00:19:08.222Z,1013.10
2019-01-03T00:20:08.219Z,1013.10
2019-01-03T00:21:08.206Z,1013.14
2019-01-03T00:22:08.198Z,1013.11
2019-01-03T00:23:08.202Z,1013.11
2019-01-03T00:24:08.172Z,1013.18
2019-01-03T00:25:08.162Z,1013.20
2019-01-03T00:26:08.154Z,1013.18
2019-01-03T00:27:08.142Z,1013.18
2019-01-03T00:28:08.193Z,1013.18
2019-01-03T00:29:08.118Z,1013.19
2019-01-03T00:30:08.109Z,1013.20
2019-01-03T00:31:08.107Z,1013.22
2019-01-03T00:32:08.092Z,1013.18
2019-01-03T00:33:08.078Z,1013.20
2019-01-03T00:34:08.070Z,1013.18
2019-01-03T00:35:08.070Z,1013.16
2019-01-03T00:36:08.052Z,1013.21
2019-01-03T00:37:08.040Z,1013.19
2019-01-03T00:38:08.029Z,1013.20
2019-01-03T00:39:08.020Z,1013.24
2019-01-03T00:40:08.010Z,1013.24
2019-01-03T00:41:07.998Z,1013.25
2019-01-03T00:42:07.990Z,1013.25
2019-01-03T00:43:07.976Z,1013.26
2019-01-03T00:44:07.967Z,1013.25
2019-01-03T00:45:07.960Z,1013.25
2019-01-03T00:46:07.947Z,1013.23
2019-01-03T00:47:07.937Z,1013.25
2019-01-03T00:48:07.921Z,1013.26
2019-01-03T00:49:07.911Z,1013.26
2019-01-03T00:50:07.905Z,1013.29
2019-01-03T00:51:07.892Z,1013.21
2019-01-03T00:52:07.883Z,1013.24
2019-01-03T00:53:07.876Z,1013.28
2019-01-03T00:54:07.863Z,1013.32
2019-01-03T00:55:07.851Z,1013.30
2019-01-03T00:56:07.840Z,1013.34
2019-01-03T00:57:07.834Z,1013.37
2019-01-03T00:58:07.826Z,1013.38
2019-01-03T00:59:07.807Z,1013.37
2019-01-03T01:00:07.805Z,1013.38
2019-01-03T01:01:07.829Z,1013.39
2019-01-03T01:02:07.779Z,1013.37
2019-01-03T01:03:07.763Z,1013.42
2019-01-03T01:04:07.758Z,1013.46
2019-01-03T01:05:07.751Z,1013.43
2019-01-03T01:06:07.744Z,1013.44
2019-01-03T01:07:07.727Z,1013.39
2019-01-03T01:08:07.718Z,1013.43
2019-01-03T01:09:07.704Z,1013.41
2019-01-03T01:10:07.695Z,1013.48
2019-01-03T01:11:07.686Z,1013.40
2019-01-03T01:12:07.677Z,1013.41
2019-01-03T01:13:07.664Z,1013.43
2019-01-03T01:14:07.653Z,1013.43
2019-01-03T01:15:07.639Z,1013.44
2019-01-03T01:16:07.634Z,1013.42
2019-01-03T01:17:07.620Z,1013.47
2019-01-03T01:18:07.608Z,1013.47
2019-01-03T01:19:07.610Z,1013.49
2019-01-03T01:20:07.595Z,1013.54
2019-01-03T01:21:07.574Z,1013.53
2019-01-03T01:22:07.572Z,1013.57
2019-01-03T01:23:07.560Z,1013.55
2019-01-03T01:24:07.554Z,1013.58
2019-01-03T01:25:07.542Z,1013.59
2019-01-03T01:26:07.530Z,1013.62
2019-01-03T01:27:07.516Z,1013.61
2019-01-03T01:28:07.515Z,1013.67
2019-01-03T01:29:07.498Z,1013.68
2019-01-03T01:30:07.489Z,1013.66
2019-01-03T01:31:07.478Z,1013.69
2019-01-03T01:32:07.465Z,1013.70
2019-01-03T01:33:07.457Z,1013.71
2019-01-03T01:34:07.447Z,1013.75
2019-01-03T01:35:07.440Z,1013.77
2019-01-03T01:36:07.433Z,1013.78
2019-01-03T01:37:07.414Z,1013.77
2019-01-03T01:38:07.406Z,1013.80
2019-01-03T01:39:07.401Z,1013.77
2019-01-03T01:40:07.384Z,1013.79
2019-01-03T01:41:07.373Z,1013.80
2019-01-03T01:42:07.362Z,1013.75
2019-01-03T01:43:07.357Z,1013.75
2019-01-03T01:44:07.340Z,1013.76
2019-01-03T01:45:07.327Z,1013.81
2019-01-03T01:46:07.321Z,1013.83
2019-01-03T01:47:07.318Z,1013.85
2019-01-03T01:48:07.313Z,1013.87
2019-01-03T01:49:07.292Z,1013.84
2019-01-03T01:50:07.281Z,1013.86
2019-01-03T01:51:07.278Z,1013.87
2019-01-03T01:52:07.259Z,1013.90
2019-01-03T01:53:07.250Z,1013.92
2019-01-03T01:54:07.237Z,1013.93
2019-01-03T01:55:07.234Z,1013.91
2019-01-03T01:56:07.218Z,1013.91
2019-01-03T01:57:07.214Z,1013.93
2019-01-03T01:58:07.198Z,1013.93
2019-01-03T01:59:07.188Z,1013.97
2019-01-03T02:00:07.179Z,1013.87
2019-01-03T02:01:07.166Z,1013.91
2019-01-03T02:02:07.154Z,1013.86
2019-01-03T02:03:07.148Z,1013.86
2019-01-03T02:04:07.135Z,1013.83
2019-01-03T02:05:07.124Z,1013.87
2019-01-03T02:06:07.115Z,1013.90
2019-01-03T02:07:07.101Z,1013.88
2019-01-03T02:08:07.091Z,1013.94
2019-01-03T02:09:07.082Z,1013.93
2019-01-03T02:10:07.074Z,1013.90
2019-01-03T02:11:07.066Z,1013.95
2019-01-03T02:12:07.055Z,1013.90
2019-01-03T02:13:07.039Z,1013.89
2019-01-03T02:14:07.029Z,1013.89
2019-01-03T02:15:07.015Z,1013.90
2019-01-03T02:16:07.018Z,1013.88
2019-01-03T02:17:07.000Z,1013.83
2019-01-03T02:18:06.988Z,1013.82
2019-01-03T02:19:06.980Z,1013.85
2019-01-03T02:20:06.970Z,1013.82
2019-01-03T02:21:06.957Z,1013.82
2019-01-03T02:22:06.946Z,1013.83
2019-01-03T02:23:06.941Z,1013.80
2019-01-03T02:24:06.924Z,1013.85
2019-01-03T02:25:06.914Z,1013.81
2019-01-03T02:26:06.904Z,1013.83
2019-01-03T02:27:06.894Z,1013.81
2019-01-03T02:28:06.882Z,1013.84
2019-01-03T02:29:06.874Z,1013.81
2019-01-03T02:30:06.867Z,1013.79
2019-01-03T02:31:06.864Z,1013.81
2019-01-03T02:32:06.849Z,1013.79
2019-01-03T02:33:06.829Z,1013.79
2019-01-03T02:34:06.823Z,1013.80
2019-01-03T02:35:06.811Z,1013.78
2019-01-03T02:36:06.800Z,1013.78
2019-01-03T02:37:06.788Z,1013.74
2019-01-03T02:38:06.781Z,1013.73
2019-01-03T02:39:06.768Z,1013.74
2019-01-03T02:40:06.759Z,1013.73
2019-01-03T02:41:06.747Z,1013.72
2019-01-03T02:42:06.733Z,1013.72
2019-01-03T02:43:06.726Z,1013.73
2019-01-03T02:44:06.726Z,1013.68
2019-01-03T02:45:06.710Z,1013.65
2019-01-03T02:46:06.698Z,1013.67
2019-01-03T02:47:06.681Z,1013.64
2019-01-03T02:48:06.678Z,1013.65
2019-01-03T02:49:06.664Z,1013.64
2019-01-03T02:50:06.655Z,1013.60
2019-01-03T02:51:06.642Z,1013.59
2019-01-03T02:52:06.633Z,1013.56
2019-01-03T02:53:06.630Z,1013.51
2019-01-03T02:54:06.609Z,1013.50
2019-01-03T02:55:06.603Z,1013.55
2019-01-03T02:56:06.594Z,1013.47
2019-01-03T02:57:06.580Z,1013.48
2019-01-03T02:58:06.574Z,1013.46
2019-01-03T02:59:06.565Z,1013.43
2019-01-03T03:00:06.543Z,1013.42
2019-01-03T03:01:06.534Z,1013.47
2019-01-03T03:02:06.529Z,1013.40
2019-01-03T03:03:06.521Z,1013.38
2019-01-03T03:04:06.507Z,1013.37
2019-01-03T03:05:06.497Z,1013.40
2019-01-03T03:06:06.487Z,1013.43
2019-01-03T03:07:06.476Z,1013.42
2019-01-03T03:08:06.466Z,1013.37
2019-01-03T03:09:06.456Z,1013.37
2019-01-03T03:10:06.442Z,1013.35
2019-01-03T03:11:06.437Z,1013.37
2019-01-03T03:12:06.433Z,1013.37
2019-01-03T03:13:06.412Z,1013.36
2019-01-03T03:14:06.404Z,1013.38
2019-01-03T03:15:06.394Z,1013.34
2019-01-03T03:16:06.385Z,1013.36
2019-01-03T03:17:06.376Z,1013.35
2019-01-03T03:18:06.359Z,1013.38
2019-01-03T03:19:06.348Z,1013.37
2019-01-03T03:20:06.340Z,1013.38
2019-01-03T03:21:06.333Z,1013.45
2019-01-03T03:22:06.316Z,1013.38
2019-01-03T03:23:06.308Z,1013.32
2019-01-03T03:24:06.297Z,1013.29
2019-01-03T03:25:06.288Z,1013.24
2019-01-03T03:26:06.278Z,1013.28
2019-01-03T03:27:06.270Z,1013.26
2019-01-03T03:28:06.259Z,1013.26
2019-01-03T03:29:06.246Z,1013.25
2019-01-03T03:30:06.235Z,1013.24
2019-01-03T03:31:06.235Z,1013.23
2019-01-03T03:32:06.220Z,1013.24
2019-01-03T03:33:06.205Z,1013.19
2019-01-03T03:34:06.199Z,1013.17
2019-01-03T03:35:06.181Z,1013.19
2019-01-03T03:36:06.169Z,1013.17
2019-01-03T03:37:06.165Z,1013.14
2019-01-03T03:38:06.147Z,1013.13
2019-01-03T03:39:06.140Z,1013.12
2019-01-03T03:40:06.133Z,1013.10
2019-01-03T03:41:06.120Z,1013.08
2019-01-03T03:42:06.108Z,1013.05
2019-01-03T03:43:06.121Z,1013.06
2019-01-03T03:44:06.089Z,1013.06
2019-01-03T03:45:06.082Z,1013.06
2019-01-03T03:46:06.067Z,1013.06
2019-01-03T03:47:06.059Z,1013.03
2019-01-03T03:48:06.046Z,1012.99
2019-01-03T03:49:06.033Z,1012.98
2019-01-03T03:50:06.026Z,1012.97
2019-01-03T03:51:06.017Z,1012.95
2019-01-03T03:52:06.004Z,1012.94
2019-01-03T03:53:05.994Z,1012.92
2019-01-03T03:54:05.988Z,1012.87
2019-01-03T03:55:05.976Z,1012.83
2019-01-03T03:56:05.966Z,1012.83
2019-01-03T03:57:05.945Z,1012.84
2019-01-03T03:58:05.942Z,1012.84
2019-01-03T03:59:05.942Z,1012.85
2019-01-03T04:00:05.920Z,1012.89
2019-01-03T04:01:05.917Z,1012.91
2019-01-03T04:02:05.905Z,1012.97
2019-01-03T04:03:05.890Z,1012.98
2019-01-03T04:04:05.880Z,1012.97
2019-01-03T04:05:05.865Z,1012.97
2019-01-03T04:06:05.859Z,1013.05
2019-01-03T04:07:05.861Z,1013.03
2019-01-03T04:08:05.837Z,1013.00
2019-01-03T04:09:05.827Z,1013.03
2019-01-03T04:10:05.815Z,1012.97
2019-01-03T04:11:05.808Z,1012.98
2019-01-03T04:12:05.797Z,1013.01
2019-01-03T04:13:05.787Z,1013.04
2019-01-03T04:14:05.782Z,1013.11
2019-01-03T04:15:05.767Z,1013.13
2019-01-03T04:16:05.751Z,1013.16
2019-01-03T04:17:05.739Z,1013.07
2019-01-03T04:18:05.743Z,1013.05
2019-01-03T04:19:05.724Z,1013.11
2019-01-03T04:20:05.714Z,1013.10
2019-01-03T04:21:05.699Z,1013.10
2019-01-03T04:22:05.691Z,1013.08
2019-01-03T04:23:05.678Z,1013.03
2019-01-03T04:24:05.672Z,1013.03
2019-01-03T04:25:05.659Z,1012.97
2019-01-03T04:26:05.646Z,1012.94
2019-01-03T04:27:05.640Z,1012.94
2019-01-03T04:28:05.626Z,1012.92
2019-01-03T04:29:05.618Z,1012.93
2019-01-03T04:30:05.608Z,1012.92
2019-01-03T04:31:05.599Z,1012.93
2019-01-03T04:32:05.591Z,1012.89
2019-01-03T04:33:05.575Z,1012.94
2019-01-03T04:34:05.565Z,1012.91
2019-01-03T04:35:05.553Z,1012.92
2019-01-03T04:36:05.544Z,1012.95
2019-01-03T04:37:05.529Z,1012.98
2019-01-03T04:38:05.522Z,1012.99
2019-01-03T04:39:05.515Z,1012.92
2019-01-03T04:40:05.503Z,1012.90
2019-01-03T04:41:05.493Z,1012.93
2019-01-03T04:42:05.483Z,1012.90
2019-01-03T04:43:05.469Z,1012.89
2019-01-03T04:44:05.463Z,1012.84
2019-01-03T04:45:05.448Z,1012.75
2019-01-03T04:46:05.448Z,1012.72
2019-01-03T04:47:05.429Z,1012.74
2019-01-03T04:48:05.416Z,1012.76
2019-01-03T04:49:05.414Z,1012.72
2019-01-03T04:50:05.399Z,1012.69
2019-01-03T04:51:05.389Z,1012.64
2019-01-03T04:52:05.368Z,1012.63
2019-01-03T04:53:05.367Z,1012.59
2019-01-03T04:54:05.353Z,1012.62
2019-01-03T04:55:05.345Z,1012.63
2019-01-03T04:56:05.333Z,1012.63
2019-01-03T04:57:05.319Z,1012.64
2019-01-03T04:58:05.316Z,1012.68
2019-01-03T04:59:05.308Z,1012.68
2019-01-03T05:00:05.294Z,1012.68
2019-01-03T05:01:05.286Z,1012.71
2019-01-03T05:02:05.271Z,1012.80
2019-01-03T05:03:05.259Z,1012.76
2019-01-03T05:04:05.250Z,1012.81
2019-01-03T05:05:05.251Z,1012.80
2019-01-03T05:06:05.228Z,1012.82
2019-01-03T05:07:05.221Z,1012.80
2019-01-03T05:08:05.217Z,1012.77
2019-01-03T05:09:05.198Z,1012.78
2019-01-03T05:10:05.190Z,1012.74
2019-01-03T05:11:05.176Z,1012.77
2019-01-03T05:12:05.163Z,1012.74
2019-01-03T05:13:05.160Z,1012.73
2019-01-03T05:14:05.151Z,1012.72
2019-01-03T05:15:05.152Z,1012.67
2019-01-03T05:16:05.132Z,1012.71
2019-01-03T05:17:05.121Z,1012.68
2019-01-03T05:18:05.104Z,1012.70
2019-01-03T05:19:05.096Z,1012.74
2019-01-03T05:20:05.080Z,1012.70
2019-01-03T05:21:05.081Z,1012.73
2019-01-03T05:22:05.055Z,1012.70
2019-01-03T05:23:05.054Z,1012.67
2019-01-03T05:24:05.036Z,1012.71
2019-01-03T05:25:05.032Z,1012.69
2019-01-03T05:26:05.016Z,1012.70
2019-01-03T05:27:05.008Z,1012.69
2019-01-03T05:28:04.994Z,1012.70
2019-01-03T05:29:04.980Z,1012.67
2019-01-03T05:30:04.967Z,1012.70
2019-01-03T05:31:04.961Z,1012.67
2019-01-03T05:32:04.955Z,1012.71
2019-01-03T05:33:04.951Z,1012.67
2019-01-03T05:34:04.924Z,1012.66
2019-01-03T05:35:04.911Z,1012.67
2019-01-03T05:36:04.902Z,1012.72
2019-01-03T05:37:04.899Z,1012.70
2019-01-03T05:38:04.886Z,1012.77
2019-01-03T05:39:04.867Z,1012.82
2019-01-03T05:40:04.861Z,1012.89
2019-01-03T05:41:05.194Z,1012.90
2019-01-03T05:42:04.837Z,1012.87
2019-01-03T05:43:04.828Z,1012.86
2019-01-03T05:44:04.817Z,1012.89
2019-01-03T05:45:04.800Z,1012.96
2019-01-03T05:46:04.801Z,1013.00
2019-01-03T05:47:04.785Z,1012.96
2019-01-03T05:48:04.778Z,1012.97
2019-01-03T05:49:04.770Z,1012.96
2019-01-03T05:50:04.760Z,1012.94
2019-01-03T05:51:04.743Z,1012.93
2019-01-03T05:52:04.732Z,1012.95
2019-01-03T05:53:04.721Z,1012.94
2019-01-03T05:54:04.710Z,1013.01
2019-01-03T05:55:04.698Z,1013.00
2019-01-03T05:56:04.684Z,1012.96
2019-01-03T05:57:04.680Z,1012.96
2019-01-03T05:58:04.664Z,1012.93
2019-01-03T05:59:04.658Z,1012.94
2019-01-03T06:00:04.645Z,1012.93
2019-01-03T06:01:04.630Z,1012.95
2019-01-03T06:02:04.620Z,1012.96
2019-01-03T06:03:04.609Z,1012.97
2019-01-03T06:04:04.600Z,1012.98
2019-01-03T06:05:04.589Z,1013.01
2019-01-03T06:06:04.569Z,1013.04
2019-01-03T06:07:04.566Z,1013.01
2019-01-03T06:08:04.561Z,1013.04
2019-01-03T06:09:04.543Z,1012.99
2019-01-03T06:10:04.534Z,1012.93
2019-01-03T06:11:04.524Z,1012.95
2019-01-03T06:12:04.513Z,1012.98
2019-01-03T06:13:04.502Z,1013.00
2019-01-03T06:14:04.496Z,1012.95
2019-01-03T06:15:04.478Z,1012.99
2019-01-03T06:16:04.471Z,1012.97
2019-01-03T06:17:04.465Z,1012.97
2019-01-03T06:18:04.443Z,1012.88
2019-01-03T06:19:04.443Z,1012.89
2019-01-03T06:20:04.429Z,1012.92
2019-01-03T06:21:04.418Z,1012.89
2019-01-03T06:22:04.407Z,1012.87
2019-01-03T06:23:04.397Z,1012.93
2019-01-03T06:24:04.380Z,1012.89
2019-01-03T06:25:04.375Z,1012.85
2019-01-03T06:26:04.361Z,1012.85
2019-01-03T06:27:04.371Z,1012.89
2019-01-03T06:28:04.343Z,1012.87
2019-01-03T06:29:04.336Z,1012.84
2019-01-03T06:30:04.324Z,1012.85
2019-01-03T06:31:04.312Z,1012.84
2019-01-03T06:32:04.346Z,1012.90
2019-01-03T06:33:04.288Z,1012.93
2019-01-03T06:34:04.273Z,1012.93
2019-01-03T06:35:04.275Z,1012.93
2019-01-03T06:36:04.256Z,1012.94
2019-01-03T06:37:04.239Z,1012.95
2019-01-03T06:38:04.240Z,1012.99
2019-01-03T06:39:04.225Z,1012.97
2019-01-03T06:40:04.213Z,1012.98
2019-01-03T06:41:04.210Z,1013.01
2019-01-03T06:42:04.190Z,1013.05
2019-01-03T06:43:04.191Z,1013.06
2019-01-03T06:44:04.172Z,1013.06
2019-01-03T06:45:04.172Z,1013.08
2019-01-03T06:46:04.150Z,1013.09
2019-01-03T06:47:04.140Z,1013.14
2019-01-03T06:48:04.127Z,1013.14
2019-01-03T06:49:04.118Z,1013.15
2019-01-03T06:50:04.109Z,1013.14
2019-01-03T06:51:04.099Z,1013.07
2019-01-03T06:52:04.084Z,1013.04
2019-01-03T06:53:04.078Z,1013.02
2019-01-03T06:54:04.061Z,1013.02
2019-01-03T06:55:04.055Z,1013.02
2019-01-03T06:56:04.045Z,1013.01
2019-01-03T06:57:04.035Z,1012.97
2019-01-03T06:58:04.024Z,1013.02
2019-01-03T06:59:04.021Z,1012.90
2019-01-03T07:00:04.003Z,1012.95
2019-01-03T07:01:03.988Z,1012.99
2019-01-03T07:02:03.978Z,1012.98
2019-01-03T07:03:03.971Z,1012.94
2019-01-03T07:04:03.959Z,1012.94
2019-01-03T07:05:03.949Z,1012.95
2019-01-03T07:06:03.937Z,1012.97
2019-01-03T07:07:03.930Z,1012.94
2019-01-03T07:08:03.920Z,1012.98
2019-01-03T07:09:03.913Z,1013.01
2019-01-03T07:10:03.894Z,1012.99
2019-01-03T07:11:03.885Z,1013.01
2019-01-03T07:12:03.875Z,1012.97
2019-01-03T07:13:03.871Z,1012.99
2019-01-03T07:14:03.853Z,1012.97
2019-01-03T07:15:03.843Z,1013.00
2019-01-03T07:16:03.835Z,1013.00
2019-01-03T07:17:03.817Z,1013.06
2019-01-03T07:18:03.814Z,1013.10
2019-01-03T07:19:03.803Z,1013.07
2019-01-03T07:20:03.794Z,1013.07
2019-01-03T07:21:03.777Z,1013.08
2019-01-03T07:22:03.774Z,1013.03
2019-01-03T07:23:03.760Z,1013.04
2019-01-03T07:24:03.749Z,1013.02
2019-01-03T07:25:03.742Z,1013.00
2019-01-03T07:26:03.728Z,1012.99
2019-01-03T07:27:03.718Z,1013.01
2019-01-03T07:28:03.713Z,1013.01
2019-01-03T07:29:03.695Z,1013.05
2019-01-03T07:30:03.682Z,1013.04
2019-01-03T07:31:03.682Z,1013.08
2019-01-03T07:32:03.664Z,1013.06
2019-01-03T07:33:03.652Z,1013.06
2019-01-03T07:34:03.645Z,1013.06
2019-01-03T07:35:03.635Z,1013.14
2019-01-03T07:36:03.627Z,1013.11
2019-01-03T07:37:03.619Z,1013.12
2019-01-03T07:38:03.602Z,1013.12
2019-01-03T07:39:03.587Z,1013.13
2019-01-03T07:40:03.583Z,1013.15
2019-01-03T07:41:03.562Z,1013.09
2019-01-03T07:42:03.558Z,1013.14
2019-01-03T07:43:03.549Z,1013.17
2019-01-03T07:44:03.540Z,1013.19
2019-01-03T07:45:03.525Z,1013.21
2019-01-03T07:46:03.519Z,1013.24
2019-01-03T07:47:03.509Z,1013.23
2019-01-03T07:48:03.490Z,1013.20
2019-01-03T07:49:03.481Z,1013.24
2019-01-03T07:50:03.481Z,1013.24
2019-01-03T07:51:03.464Z,1013.28
2019-01-03T07:52:03.457Z,1013.31
2019-01-03T07:53:03.448Z,1013.28
2019-01-03T07:54:03.432Z,1013.30
2019-01-03T07:55:03.430Z,1013.28
2019-01-03T07:56:03.413Z,1013.33
2019-01-03T07:57:03.400Z,1013.32
2019-01-03T07:58:03.383Z,1013.34
2019-01-03T07:59:03.378Z,1013.33
2019-01-03T08:00:03.368Z,1013.31
2019-01-03T08:01:03.366Z,1013.27
2019-01-03T08:02:03.348Z,1013.28
2019-01-03T08:03:03.336Z,1013.27
2019-01-03T08:04:03.333Z,1013.27
2019-01-03T08:05:03.321Z,1013.30
2019-01-03T08:06:03.301Z,1013.32
2019-01-03T08:07:03.294Z,1013.29
2019-01-03T08:08:03.287Z,1013.27
2019-01-03T08:09:03.272Z,1013.27
2019-01-03T08:10:03.267Z,1013.28
2019-01-03T08:11:03.253Z,1013.28
2019-01-03T08:12:03.241Z,1013.28
2019-01-03T08:13:03.253Z,1013.25
2019-01-03T08:14:03.225Z,1013.28
2019-01-03T08:15:03.210Z,1013.30
2019-01-03T08:16:03.199Z,1013.26
2019-01-03T08:17:03.191Z,1013.26
2019-01-03T08:18:03.188Z,1013.27
2019-01-03T08:19:03.169Z,1013.26
2019-01-03T08:20:03.158Z,1013.32
2019-01-03T08:21:03.154Z,1013.28
2019-01-03T08:22:03.137Z,1013.28
2019-01-03T08:23:03.124Z,1013.28
2019-01-03T08:24:03.118Z,1013.28
2019-01-03T08:25:03.103Z,1013.29
2019-01-03T08:26:03.093Z,1013.28
2019-01-03T08:27:03.090Z,1013.25
2019-01-03T08:28:03.075Z,1013.28
2019-01-03T08:29:03.060Z,1013.33
2019-01-03T08:30:03.051Z,1013.32
2019-01-03T08:31:03.043Z,1013.39
2019-01-03T08:32:03.036Z,1013.34
2019-01-03T08:33:03.021Z,1013.32
2019-01-03T08:34:03.013Z,1013.38
2019-01-03T08:35:02.995Z,1013.33
2019-01-03T08:36:02.991Z,1013.32
2019-01-03T08:37:02.991Z,1013.29
2019-01-03T08:38:02.967Z,1013.32
2019-01-03T08:39:02.957Z,1013.31
2019-01-03T08:40:02.946Z,1013.30
2019-01-03T08:41:02.939Z,1013.34
2019-01-03T08:42:02.928Z,1013.35
2019-01-03T08:43:02.914Z,1013.40
2019-01-03T08:44:02.908Z,1013.38
2019-01-03T08:45:02.894Z,1013.37
2019-01-03T08:46:02.887Z,1013.39
2019-01-03T08:47:02.877Z,1013.41
2019-01-03T08:48:02.865Z,1013.44
2019-01-03T08:49:02.852Z,1013.47
2019-01-03T08:50:02.837Z,1013.51
2019-01-03T08:51:02.830Z,1013.51
2019-01-03T08:52:02.820Z,1013.55
2019-01-03T08:53:02.810Z,1013.58
2019-01-03T08:54:02.797Z,1013.63
2019-01-03T08:55:02.788Z,1013.67
2019-01-03T08:56:02.782Z,1013.71
2019-01-03T08:57:02.767Z,1013.66
2019-01-03T08:58:02.767Z,1013.61
2019-01-03T08:59:02.744Z,1013.60
2019-01-03T09:00:02.743Z,1013.58
2019-01-03T09:01:02.722Z,1013.57
2019-01-03T09:02:02.712Z,1013.64
2019-01-03T09:03:02.702Z,1013.68
2019-01-03T09:04:02.817Z,1013.64
2019-01-03T09:05:03.007Z,1013.64
2019-01-03T09:06:02.678Z,1013.64
2019-01-03T09:07:03.337Z,1013.65
2019-01-03T09:08:02.653Z,1013.61
2019-01-03T09:09:02.646Z,1013.61
2019-01-03T09:10:02.635Z,1013.63
2019-01-03T09:11:02.644Z,1013.57
2019-01-03T09:12:02.604Z,1013.56
2019-01-03T09:13:02.594Z,1013.53
2019-01-03T09:14:02.586Z,1013.53
2019-01-03T09:15:02.573Z,1013.52
2019-01-03T09:16:02.567Z,1013.48
2019-01-03T09:17:02.555Z,1013.46
2019-01-03T09:18:02.544Z,1013.49
2019-01-03T09:19:02.534Z,1013.55
2019-01-03T09:20:02.536Z,1013.56
2019-01-03T09:21:02.510Z,1013.53
2019-01-03T09:22:02.502Z,1013.59
2019-01-03T09:23:02.498Z,1013.61
2019-01-03T09:24:02.484Z,1013.61
2019-01-03T09:25:02.536Z,1013.67
2019-01-03T09:26:02.460Z,1013.69
2019-01-03T09:27:02.451Z,1013.68
2019-01-03T09:28:02.440Z,1013.68
2019-01-03T09:29:02.430Z,1013.73
2019-01-03T09:30:02.414Z,1013.69
2019-01-03T09:31:02.408Z,1013.70
2019-01-03T09:32:02.400Z,1013.70
2019-01-03T09:33:02.387Z,1013.68
2019-01-03T09:34:02.374Z,1013.66
2019-01-03T09:35:02.366Z,1013.70
2019-01-03T09:36:02.356Z,1013.68
2019-01-03T09:37:02.348Z,1013.70
2019-01-03T09:38:02.341Z,1013.67
2019-01-03T09:39:02.324Z,1013.69
2019-01-03T09:40:02.306Z,1013.68
2019-01-03T09:41:02.301Z,1013.70
2019-01-03T09:42:02.300Z,1013.74
2019-01-03T09:43:02.284Z,1013.71
2019-01-03T09:44:02.269Z,1013.69
2019-01-03T09:45:02.257Z,1013.69
2019-01-03T09:46:02.281Z,1013.71
2019-01-03T09:47:02.254Z,1013.67
2019-01-03T09:48:02.233Z,1013.71
2019-01-03T09:49:02.213Z,1013.67
2019-01-03T09:50:02.204Z,1013.69
2019-01-03T09:51:02.201Z,1013.64
2019-01-03T09:52:02.186Z,1013.68
2019-01-03T09:53:02.174Z,1013.70
2019-01-03T09:54:02.167Z,1013.68
2019-01-03T09:55:02.172Z,1013.64
2019-01-03T09:56:02.143Z,1013.59
2019-01-03T09:57:02.133Z,1013.67
2019-01-03T09:58:02.119Z,1013.64
2019-01-03T09:59:02.108Z,1013.62
2019-01-03T10:00:02.108Z,1013.62
2019-01-03T10:01:02.092Z,1013.57
2019-01-03T10:02:02.082Z,1013.55
2019-01-03T10:03:02.069Z,1013.61
2019-01-03T10:04:02.059Z,1013.59
2019-01-03T10:05:02.059Z,1013.56
2019-01-03T10:06:02.038Z,1013.50
2019-01-03T10:07:02.028Z,1013.52
2019-01-03T10:08:02.015Z,1013.54
2019-01-03T10:09:02.008Z,1013.55
2019-01-03T10:10:01.994Z,1013.56
2019-01-03T10:11:01.992Z,1013.60
2019-01-03T10:12:01.978Z,1013.58
2019-01-03T10:13:01.965Z,1013.60
2019-01-03T10:14:01.956Z,1013.61
2019-01-03T10:15:01.968Z,1013.61
2019-01-03T10:16:01.935Z,1013.58
2019-01-03T10:17:01.925Z,1013.51
2019-01-03T10:18:01.913Z,1013.47
2019-01-03T10:19:01.900Z,1013.47
2019-01-03T10:20:01.893Z,1013.46
2019-01-03T10:21:01.881Z,1013.44
2019-01-03T10:22:01.871Z,1013.41
2019-01-03T10:23:01.857Z,1013.36
2019-01-03T10:24:01.849Z,1013.34
2019-01-03T10:25:01.839Z,1013.33
2019-01-03T10:26:01.828Z,1013.34
2019-01-03T10:27:01.819Z,1013.31
2019-01-03T10:28:01.814Z,1013.35
2019-01-03T10:29:01.796Z,1013.36
2019-01-03T10:30:01.784Z,1013.33
2019-01-03T10:31:01.772Z,1013.32
2019-01-03T10:32:01.766Z,1013.35
2019-01-03T10:33:01.763Z,1013.32
2019-01-03T10:34:01.743Z,1013.28
2019-01-03T10:35:01.733Z,1013.32
2019-01-03T10:36:01.724Z,1013.26
2019-01-03T10:37:01.712Z,1013.22
2019-01-03T10:38:01.703Z,1013.18
2019-01-03T10:39:01.692Z,1013.14
2019-01-03T10:40:01.685Z,1013.11
2019-01-03T10:41:01.672Z,1013.10
2019-01-03T10:42:01.659Z,1013.11
2019-01-03T10:43:01.651Z,1013.14
2019-01-03T10:44:01.640Z,1013.16
2019-01-03T10:45:01.624Z,1013.18
2019-01-03T10:46:01.621Z,1013.17
2019-01-03T10:47:01.604Z,1013.17
2019-01-03T10:48:01.592Z,1013.13
2019-01-03T10:49:01.584Z,1013.09
2019-01-03T10:50:01.573Z,1013.13
2019-01-03T10:51:01.559Z,1013.10
2019-01-03T10:52:01.552Z,1013.13
2019-01-03T10:53:01.544Z,1013.08
2019-01-03T10:54:01.529Z,1013.07
2019-01-03T10:55:01.526Z,1013.05
2019-01-03T10:56:01.516Z,1013.07
2019-01-03T10:57:01.498Z,1013.00
2019-01-03T10:58:01.485Z,1013.03
2019-01-03T10:59:01.482Z,1013.03
2019-01-03T11:00:01.469Z,1012.99
2019-01-03T11:01:01.456Z,1012.95
2019-01-03T11:02:01.444Z,1012.96
2019-01-03T11:03:01.444Z,1012.97
2019-01-03T11:04:01.430Z,1012.92
2019-01-03T11:05:01.418Z,1012.88
2019-01-03T11:06:01.403Z,1012.90
2019-01-03T11:07:01.392Z,1012.88
2019-01-03T11:08:01.381Z,1012.84
2019-01-03T11:09:01.368Z,1012.88
2019-01-03T11:10:01.366Z,1012.82
2019-01-03T11:11:02.239Z,1012.84
2019-01-03T11:12:01.337Z,1012.83
2019-01-03T11:13:01.327Z,1012.79
2019-01-03T11:14:01.326Z,1012.76
2019-01-03T11:15:01.308Z,1012.77
2019-01-03T11:16:01.298Z,1012.68
2019-01-03T11:17:01.285Z,1012.73
2019-01-03T11:18:01.274Z,1012.69
2019-01-03T11:19:01.274Z,1012.73
2019-01-03T11:20:01.256Z,1012.67
2019-01-03T11:21:01.242Z,1012.67
2019-01-03T11:22:01.226Z,1012.65
2019-01-03T11:23:01.222Z,1012.63
2019-01-03T11:24:01.216Z,1012.64
2019-01-03T11:25:01.198Z,1012.63
2019-01-03T11:26:01.190Z,1012.63
2019-01-03T11:27:01.177Z,1012.60
2019-01-03T11:28:01.168Z,1012.55
2019-01-03T11:29:01.162Z,1012.59
2019-01-03T11:30:01.152Z,1012.55
2019-01-03T11:31:02.108Z,1012.54
2019-01-03T11:32:01.128Z,1012.51
2019-01-03T11:33:01.118Z,1012.47
2019-01-03T11:34:01.111Z,1012.47
2019-01-03T11:35:01.108Z,1012.41
2019-01-03T11:36:01.085Z,1012.43
2019-01-03T11:37:01.073Z,1012.43
2019-01-03T11:38:01.061Z,1012.46
2019-01-03T11:39:01.053Z,1012.47
2019-01-03T11:40:01.041Z,1012.46
2019-01-03T11:41:01.024Z,1012.42
2019-01-03T11:42:01.019Z,1012.48
2019-01-03T11:43:01.007Z,1012.42
2019-01-03T11:44:00.999Z,1012.43
2019-01-03T11:45:00.993Z,1012.38
2019-01-03T11:46:00.976Z,1012.39
2019-01-03T11:47:00.973Z,1012.40
2019-01-03T11:48:00.956Z,1012.42
2019-01-03T11:49:00.941Z,1012.39
2019-01-03T11:50:00.934Z,1012.42
2019-01-03T11:51:00.925Z,1012.39
2019-01-03T11:52:00.916Z,1012.43
2019-01-03T11:53:00.910Z,1012.38
2019-01-03T11:54:00.893Z,1012.37
2019-01-03T11:55:00.885Z,1012.46
2019-01-03T11:56:00.869Z,1012.43
2019-01-03T11:57:00.866Z,1012.44
2019-01-03T11:58:00.873Z,1012.44
2019-01-03T11:59:00.836Z,1012.43
2019-01-03T12:00:00.861Z,1012.47
2019-01-03T12:01:00.825Z,1012.46
2019-01-03T12:02:00.808Z,1012.49
2019-01-03T12:03:00.802Z,1012.46
2019-01-03T12:04:00.789Z,1012.47
2019-01-03T12:05:00.777Z,1012.45